Terminal Aerodrome Forecast
Issued by NWS Wilmington, OH

Current Version | Previous Version | Graphics & Text | Print | Product List | Glossary On
Versions: 1 2 3 4 5 6 7 8 9 10 11 12 13 14 15 16 17 18 19 20 21 22
000
FTUS41 KILN 091700
TAFCVG
TAF
KCVG 091726Z 0918/1024 27012KT P6SM BKN050
     FM100000 31006KT P6SM SCT050
     FM100300 01004KT P6SM SKC
      TEMPO 1009/1011 5SM BR
     FM101500 36008KT P6SM SKC=

USA.gov is the U.S. government's official web portal to all federal, state and local government web resources and services.